sensor_id;sensor_type;location;lat;lon;timestamp;P1;durP1;ratioP1;P2;durP2;ratioP2
25549;SDS011;13444;50.562;7.262;2023-05-07T00:00:16;4.22;;;1.60;;
25549;SDS011;13444;50.562;7.262;2023-05-07T00:02:44;5.53;;;1.60;;
25549;SDS011;13444;50.562;7.262;2023-05-07T00:05:10;3.70;;;1.45;;
25549;SDS011;13444;50.562;7.262;2023-05-07T00:07:36;5.38;;;1.88;;
25549;SDS011;13444;50.562;7.262;2023-05-07T00:10:02;2.20;;;1.50;;
25549;SDS011;13444;50.562;7.262;2023-05-07T00:12:28;2.13;;;1.40;;
25549;SDS011;13444;50.562;7.262;2023-05-07T00:14:56;3.13;;;1.75;;
25549;SDS011;13444;50.562;7.262;2023-05-07T00:17:22;3.60;;;2.10;;
25549;SDS011;13444;50.562;7.262;2023-05-07T00:19:47;2.85;;;1.88;;
25549;SDS011;13444;50.562;7.262;2023-05-07T00:22:13;2.35;;;1.65;;
25549;SDS011;13444;50.562;7.262;2023-05-07T00:24:38;3.38;;;1.65;;
25549;SDS011;13444;50.562;7.262;2023-05-07T00:27:04;2.85;;;1.75;;
25549;SDS011;13444;50.562;7.262;2023-05-07T00:29:30;3.00;;;1.67;;
25549;SDS011;13444;50.562;7.262;2023-05-07T00:31:55;5.63;;;1.77;;
25549;SDS011;13444;50.562;7.262;2023-05-07T00:34:21;4.13;;;2.20;;
25549;SDS011;13444;50.562;7.262;2023-05-07T00:36:47;3.13;;;2.13;;
25549;SDS011;13444;50.562;7.262;2023-05-07T00:39:13;3.08;;;2.08;;
25549;SDS011;13444;50.562;7.262;2023-05-07T00:41:38;2.65;;;2.05;;
25549;SDS011;13444;50.562;7.262;2023-05-07T00:44:04;2.90;;;1.63;;
25549;SDS011;13444;50.562;7.262;2023-05-07T00:46:30;3.53;;;1.83;;
25549;SDS011;13444;50.562;7.262;2023-05-07T00:48:56;4.88;;;2.00;;
25549;SDS011;13444;50.562;7.262;2023-05-07T00:51:22;3.10;;;1.95;;
25549;SDS011;13444;50.562;7.262;2023-05-07T00:53:50;2.17;;;1.85;;
25549;SDS011;13444;50.562;7.262;2023-05-07T00:56:15;3.08;;;2.00;;
25549;SDS011;13444;50.562;7.262;2023-05-07T00:58:41;3.55;;;2.20;;
25549;SDS011;13444;50.562;7.262;2023-05-07T01:01:07;3.85;;;2.10;;
25549;SDS011;13444;50.562;7.262;2023-05-07T01:03:32;2.55;;;2.35;;
25549;SDS011;13444;50.562;7.262;2023-05-07T01:05:58;4.78;;;2.50;;
25549;SDS011;13444;50.562;7.262;2023-05-07T01:08:25;4.05;;;3.15;;
25549;SDS011;13444;50.562;7.262;2023-05-07T01:10:54;4.05;;;2.70;;
25549;SDS011;13444;50.562;7.262;2023-05-07T01:13:21;3.58;;;2.55;;
25549;SDS011;13444;50.562;7.262;2023-05-07T01:15:47;3.17;;;2.80;;
25549;SDS011;13444;50.562;7.262;2023-05-07T01:18:13;2.90;;;2.60;;
25549;SDS011;13444;50.562;7.262;2023-05-07T01:20:38;3.30;;;2.60;;
25549;SDS011;13444;50.562;7.262;2023-05-07T01:23:04;2.70;;;2.28;;
25549;SDS011;13444;50.562;7.262;2023-05-07T01:25:31;3.38;;;2.60;;
25549;SDS011;13444;50.562;7.262;2023-05-07T01:27:57;6.13;;;2.30;;
25549;SDS011;13444;50.562;7.262;2023-05-07T01:30:25;3.72;;;2.67;;
25549;SDS011;13444;50.562;7.262;2023-05-07T01:32:52;3.72;;;2.53;;
25549;SDS011;13444;50.562;7.262;2023-05-07T01:35:24;5.60;;;2.58;;
25549;SDS011;13444;50.562;7.262;2023-05-07T01:37:53;4.85;;;2.30;;
25549;SDS011;13444;50.562;7.262;2023-05-07T01:40:20;7.70;;;2.30;;
25549;SDS011;13444;50.562;7.262;2023-05-07T01:42:46;3.03;;;2.33;;
25549;SDS011;13444;50.562;7.262;2023-05-07T01:45:13;4.07;;;2.50;;
25549;SDS011;13444;50.562;7.262;2023-05-07T01:47:39;4.20;;;2.60;;
25549;SDS011;13444;50.562;7.262;2023-05-07T01:50:05;5.13;;;2.00;;
25549;SDS011;13444;50.562;7.262;2023-05-07T01:52:32;3.85;;;2.25;;
25549;SDS011;13444;50.562;7.262;2023-05-07T01:54:59;2.83;;;2.13;;
25549;SDS011;13444;50.562;7.262;2023-05-07T01:57:24;2.88;;;2.15;;
25549;SDS011;13444;50.562;7.262;2023-05-07T01:59:50;4.88;;;2.70;;
25549;SDS011;13444;50.562;7.262;2023-05-07T02:02:16;2.55;;;2.35;;
25549;SDS011;13444;50.562;7.262;2023-05-07T02:04:41;3.35;;;2.45;;
25549;SDS011;13444;50.562;7.262;2023-05-07T02:07:07;3.85;;;2.58;;
25549;SDS011;13444;50.562;7.262;2023-05-07T02:09:32;3.88;;;2.50;;
25549;SDS011;13444;50.562;7.262;2023-05-07T02:11:58;4.53;;;2.50;;
25549;SDS011;13444;50.562;7.262;2023-05-07T02:14:23;2.53;;;2.33;;
25549;SDS011;13444;50.562;7.262;2023-05-07T02:16:49;3.53;;;2.22;;
25549;SDS011;13444;50.562;7.262;2023-05-07T02:19:15;4.00;;;2.30;;
25549;SDS011;13444;50.562;7.262;2023-05-07T02:21:41;3.55;;;2.38;;
25549;SDS011;13444;50.562;7.262;2023-05-07T02:24:06;4.90;;;2.20;;
25549;SDS011;13444;50.562;7.262;2023-05-07T02:26:32;5.05;;;2.80;;
25549;SDS011;13444;50.562;7.262;2023-05-07T02:28:57;3.28;;;2.05;;
25549;SDS011;13444;50.562;7.262;2023-05-07T02:31:23;4.88;;;2.47;;
25549;SDS011;13444;50.562;7.262;2023-05-07T02:33:48;3.70;;;2.20;;
25549;SDS011;13444;50.562;7.262;2023-05-07T02:36:14;4.03;;;2.58;;
25549;SDS011;13444;50.562;7.262;2023-05-07T02:38:40;3.33;;;2.17;;
25549;SDS011;13444;50.562;7.262;2023-05-07T02:41:05;2.95;;;2.22;;
25549;SDS011;13444;50.562;7.262;2023-05-07T02:43:31;3.88;;;2.50;;
25549;SDS011;13444;50.562;7.262;2023-05-07T02:46:03;3.65;;;2.50;;
25549;SDS011;13444;50.562;7.262;2023-05-07T02:48:33;5.65;;;2.55;;
25549;SDS011;13444;50.562;7.262;2023-05-07T02:50:59;6.50;;;2.17;;
25549;SDS011;13444;50.562;7.262;2023-05-07T02:53:25;4.70;;;2.80;;
25549;SDS011;13444;50.562;7.262;2023-05-07T02:55:57;5.65;;;2.45;;
25549;SDS011;13444;50.562;7.262;2023-05-07T02:58:24;3.20;;;2.65;;
25549;SDS011;13444;50.562;7.262;2023-05-07T03:00:50;3.88;;;2.40;;
25549;SDS011;13444;50.562;7.262;2023-05-07T03:03:15;3.38;;;2.83;;
25549;SDS011;13444;50.562;7.262;2023-05-07T03:05:41;4.82;;;2.63;;
25549;SDS011;13444;50.562;7.262;2023-05-07T03:08:07;4.10;;;2.38;;
25549;SDS011;13444;50.562;7.262;2023-05-07T03:10:33;4.43;;;3.00;;
25549;SDS011;13444;50.562;7.262;2023-05-07T03:12:59;5.00;;;3.15;;
25549;SDS011;13444;50.562;7.262;2023-05-07T03:15:25;4.22;;;3.35;;
25549;SDS011;13444;50.562;7.262;2023-05-07T03:17:51;3.28;;;2.90;;
25549;SDS011;13444;50.562;7.262;2023-05-07T03:20:16;3.15;;;2.60;;
25549;SDS011;13444;50.562;7.262;2023-05-07T03:22:42;5.43;;;2.90;;
25549;SDS011;13444;50.562;7.262;2023-05-07T03:25:08;4.70;;;2.88;;
25549;SDS011;13444;50.562;7.262;2023-05-07T03:27:33;5.32;;;2.70;;
25549;SDS011;13444;50.562;7.262;2023-05-07T03:29:59;5.70;;;3.20;;
25549;SDS011;13444;50.562;7.262;2023-05-07T03:32:25;4.72;;;2.97;;
25549;SDS011;13444;50.562;7.262;2023-05-07T03:34:50;4.70;;;3.20;;
25549;SDS011;13444;50.562;7.262;2023-05-07T03:37:16;2.55;;;2.35;;
25549;SDS011;13444;50.562;7.262;2023-05-07T03:39:41;6.22;;;2.70;;
25549;SDS011;13444;50.562;7.262;2023-05-07T03:42:07;4.13;;;2.55;;
25549;SDS011;13444;50.562;7.262;2023-05-07T03:44:33;2.80;;;2.50;;
25549;SDS011;13444;50.562;7.262;2023-05-07T03:46:58;3.20;;;2.90;;
25549;SDS011;13444;50.562;7.262;2023-05-07T03:49:24;3.30;;;3.00;;
25549;SDS011;13444;50.562;7.262;2023-05-07T03:51:49;3.70;;;2.72;;
25549;SDS011;13444;50.562;7.262;2023-05-07T03:54:15;5.45;;;3.35;;
25549;SDS011;13444;50.562;7.262;2023-05-07T03:56:40;2.92;;;2.63;;
25549;SDS011;13444;50.562;7.262;2023-05-07T03:59:06;6.75;;;3.42;;
25549;SDS011;13444;50.562;7.262;2023-05-07T04:01:31;7.20;;;3.30;;
25549;SDS011;13444;50.562;7.262;2023-05-07T04:03:57;5.05;;;3.45;;
25549;SDS011;13444;50.562;7.262;2023-05-07T04:06:22;4.82;;;2.83;;
25549;SDS011;13444;50.562;7.262;2023-05-07T04:08:48;4.97;;;3.22;;
25549;SDS011;13444;50.562;7.262;2023-05-07T04:11:13;3.70;;;3.38;;
25549;SDS011;13444;50.562;7.262;2023-05-07T04:13:39;5.60;;;3.38;;
25549;SDS011;13444;50.562;7.262;2023-05-07T04:16:05;4.65;;;3.10;;
25549;SDS011;13444;50.562;7.262;2023-05-07T04:18:31;4.88;;;3.30;;
25549;SDS011;13444;50.562;7.262;2023-05-07T04:20:56;7.45;;;3.00;;
25549;SDS011;13444;50.562;7.262;2023-05-07T04:23:22;3.92;;;3.00;;
25549;SDS011;13444;50.562;7.262;2023-05-07T04:25:47;4.18;;;3.00;;
25549;SDS011;13444;50.562;7.262;2023-05-07T04:28:13;4.43;;;2.85;;
25549;SDS011;13444;50.562;7.262;2023-05-07T04:30:39;3.80;;;3.03;;
25549;SDS011;13444;50.562;7.262;2023-05-07T04:33:06;8.13;;;3.33;;
25549;SDS011;13444;50.562;7.262;2023-05-07T04:35:32;3.47;;;2.80;;
25549;SDS011;13444;50.562;7.262;2023-05-07T04:37:57;3.95;;;2.67;;
25549;SDS011;13444;50.562;7.262;2023-05-07T04:40:23;2.90;;;2.60;;
25549;SDS011;13444;50.562;7.262;2023-05-07T04:42:48;4.88;;;2.88;;
25549;SDS011;13444;50.562;7.262;2023-05-07T04:45:14;3.38;;;2.58;;
25549;SDS011;13444;50.562;7.262;2023-05-07T04:47:40;4.78;;;2.80;;
25549;SDS011;13444;50.562;7.262;2023-05-07T04:50:08;6.65;;;3.67;;
25549;SDS011;13444;50.562;7.262;2023-05-07T04:52:34;4.40;;;3.55;;
25549;SDS011;13444;50.562;7.262;2023-05-07T04:55:00;4.82;;;3.78;;
25549;SDS011;13444;50.562;7.262;2023-05-07T04:57:26;8.55;;;4.03;;
25549;SDS011;13444;50.562;7.262;2023-05-07T04:59:52;6.43;;;3.63;;
25549;SDS011;13444;50.562;7.262;2023-05-07T05:02:18;5.03;;;3.20;;
25549;SDS011;13444;50.562;7.262;2023-05-07T05:04:43;6.25;;;3.30;;
25549;SDS011;13444;50.562;7.262;2023-05-07T05:07:09;6.43;;;3.47;;
25549;SDS011;13444;50.562;7.262;2023-05-07T05:09:34;5.82;;;3.17;;
25549;SDS011;13444;50.562;7.262;2023-05-07T05:12:00;3.22;;;2.70;;
25549;SDS011;13444;50.562;7.262;2023-05-07T05:14:25;5.35;;;3.60;;
25549;SDS011;13444;50.562;7.262;2023-05-07T05:16:51;3.50;;;3.15;;
25549;SDS011;13444;50.562;7.262;2023-05-07T05:19:16;4.57;;;2.83;;
25549;SDS011;13444;50.562;7.262;2023-05-07T05:21:42;4.63;;;2.97;;
25549;SDS011;13444;50.562;7.262;2023-05-07T05:24:07;5.05;;;2.38;;
25549;SDS011;13444;50.562;7.262;2023-05-07T05:26:33;3.50;;;2.40;;
25549;SDS011;13444;50.562;7.262;2023-05-07T05:28:59;3.55;;;2.42;;
25549;SDS011;13444;50.562;7.262;2023-05-07T05:31:24;3.08;;;2.40;;
25549;SDS011;13444;50.562;7.262;2023-05-07T05:33:50;4.07;;;2.50;;
25549;SDS011;13444;50.562;7.262;2023-05-07T05:36:16;2.30;;;2.10;;
25549;SDS011;13444;50.562;7.262;2023-05-07T05:38:41;2.10;;;1.73;;
25549;SDS011;13444;50.562;7.262;2023-05-07T05:41:07;1.92;;;1.77;;
25549;SDS011;13444;50.562;7.262;2023-05-07T05:43:33;3.63;;;2.50;;
25549;SDS011;13444;50.562;7.262;2023-05-07T05:45:58;7.45;;;3.35;;
25549;SDS011;13444;50.562;7.262;2023-05-07T05:48:24;3.85;;;2.75;;
25549;SDS011;13444;50.562;7.262;2023-05-07T05:50:50;4.55;;;2.78;;
25549;SDS011;13444;50.562;7.262;2023-05-07T05:53:15;4.10;;;3.28;;
25549;SDS011;13444;50.562;7.262;2023-05-07T05:55:41;6.53;;;3.17;;
25549;SDS011;13444;50.562;7.262;2023-05-07T05:58:06;4.53;;;3.30;;
25549;SDS011;13444;50.562;7.262;2023-05-07T06:00:33;6.25;;;3.30;;
25549;SDS011;13444;50.562;7.262;2023-05-07T06:02:59;4.13;;;3.30;;
25549;SDS011;13444;50.562;7.262;2023-05-07T06:05:24;5.00;;;3.15;;
25549;SDS011;13444;50.562;7.262;2023-05-07T06:07:50;7.13;;;3.38;;
25549;SDS011;13444;50.562;7.262;2023-05-07T06:10:15;7.68;;;3.40;;
25549;SDS011;13444;50.562;7.262;2023-05-07T06:12:41;6.32;;;3.53;;
25549;SDS011;13444;50.562;7.262;2023-05-07T06:15:06;7.30;;;3.67;;
25549;SDS011;13444;50.562;7.262;2023-05-07T06:17:32;7.30;;;3.70;;
25549;SDS011;13444;50.562;7.262;2023-05-07T06:19:58;9.23;;;3.92;;
25549;SDS011;13444;50.562;7.262;2023-05-07T06:22:24;4.45;;;3.47;;
25549;SDS011;13444;50.562;7.262;2023-05-07T06:24:49;6.03;;;4.07;;
25549;SDS011;13444;50.562;7.262;2023-05-07T06:27:15;4.72;;;3.50;;
25549;SDS011;13444;50.562;7.262;2023-05-07T06:29:41;5.18;;;4.05;;
25549;SDS011;13444;50.562;7.262;2023-05-07T06:32:15;7.72;;;4.65;;
25549;SDS011;13444;50.562;7.262;2023-05-07T06:34:42;7.63;;;4.47;;
25549;SDS011;13444;50.562;7.262;2023-05-07T06:37:07;4.82;;;3.97;;
25549;SDS011;13444;50.562;7.262;2023-05-07T06:39:33;6.85;;;5.03;;
25549;SDS011;13444;50.562;7.262;2023-05-07T06:41:59;7.93;;;5.30;;
25549;SDS011;13444;50.562;7.262;2023-05-07T06:44:25;6.65;;;5.43;;
25549;SDS011;13444;50.562;7.262;2023-05-07T06:46:51;11.57;;;5.50;;
25549;SDS011;13444;50.562;7.262;2023-05-07T06:49:16;8.05;;;6.25;;
25549;SDS011;13444;50.562;7.262;2023-05-07T06:51:42;7.82;;;6.20;;
25549;SDS011;13444;50.562;7.262;2023-05-07T06:54:07;6.75;;;5.78;;
25549;SDS011;13444;50.562;7.262;2023-05-07T06:56:33;8.23;;;6.07;;
25549;SDS011;13444;50.562;7.262;2023-05-07T06:58:59;9.43;;;6.53;;
25549;SDS011;13444;50.562;7.262;2023-05-07T07:01:25;9.38;;;6.82;;
25549;SDS011;13444;50.562;7.262;2023-05-07T07:03:51;8.20;;;6.25;;
25549;SDS011;13444;50.562;7.262;2023-05-07T07:06:16;8.52;;;5.68;;
25549;SDS011;13444;50.562;7.262;2023-05-07T07:08:42;8.32;;;5.68;;
25549;SDS011;13444;50.562;7.262;2023-05-07T07:11:08;9.85;;;6.20;;
25549;SDS011;13444;50.562;7.262;2023-05-07T07:13:35;6.53;;;5.43;;
25549;SDS011;13444;50.562;7.262;2023-05-07T07:16:01;8.98;;;5.28;;
25549;SDS011;13444;50.562;7.262;2023-05-07T07:18:27;9.02;;;5.72;;
25549;SDS011;13444;50.562;7.262;2023-05-07T07:20:53;5.22;;;4.72;;
25549;SDS011;13444;50.562;7.262;2023-05-07T07:23:19;6.05;;;4.57;;
25549;SDS011;13444;50.562;7.262;2023-05-07T07:25:44;8.63;;;5.28;;
25549;SDS011;13444;50.562;7.262;2023-05-07T07:28:10;6.20;;;5.03;;
25549;SDS011;13444;50.562;7.262;2023-05-07T07:30:36;5.90;;;5.07;;
25549;SDS011;13444;50.562;7.262;2023-05-07T07:33:02;6.57;;;5.10;;
25549;SDS011;13444;50.562;7.262;2023-05-07T07:35:28;9.85;;;4.97;;
25549;SDS011;13444;50.562;7.262;2023-05-07T07:37:54;6.78;;;4.68;;
25549;SDS011;13444;50.562;7.262;2023-05-07T07:40:20;8.25;;;4.30;;
25549;SDS011;13444;50.562;7.262;2023-05-07T07:42:46;8.32;;;4.15;;
25549;SDS011;13444;50.562;7.262;2023-05-07T07:45:11;5.20;;;4.00;;
25549;SDS011;13444;50.562;7.262;2023-05-07T07:47:37;4.68;;;3.60;;
25549;SDS011;13444;50.562;7.262;2023-05-07T07:50:04;6.88;;;3.38;;
25549;SDS011;13444;50.562;7.262;2023-05-07T07:52:30;6.07;;;3.22;;
25549;SDS011;13444;50.562;7.262;2023-05-07T07:54:56;4.35;;;2.90;;
25549;SDS011;13444;50.562;7.262;2023-05-07T07:57:21;7.45;;;4.43;;
25549;SDS011;13444;50.562;7.262;2023-05-07T07:59:47;5.95;;;3.50;;
25549;SDS011;13444;50.562;7.262;2023-05-07T08:02:12;5.80;;;3.00;;
25549;SDS011;13444;50.562;7.262;2023-05-07T08:04:38;4.97;;;2.90;;
25549;SDS011;13444;50.562;7.262;2023-05-07T08:07:03;4.47;;;2.80;;
25549;SDS011;13444;50.562;7.262;2023-05-07T08:09:29;3.95;;;2.53;;
25549;SDS011;13444;50.562;7.262;2023-05-07T08:11:54;6.93;;;2.85;;
25549;SDS011;13444;50.562;7.262;2023-05-07T08:14:20;4.72;;;2.67;;
25549;SDS011;13444;50.562;7.262;2023-05-07T08:16:45;3.53;;;2.80;;
25549;SDS011;13444;50.562;7.262;2023-05-07T08:19:11;4.35;;;2.58;;
25549;SDS011;13444;50.562;7.262;2023-05-07T08:21:40;4.38;;;2.95;;
25549;SDS011;13444;50.562;7.262;2023-05-07T08:24:05;4.55;;;2.78;;
25549;SDS011;13444;50.562;7.262;2023-05-07T08:26:31;4.22;;;2.75;;
25549;SDS011;13444;50.562;7.262;2023-05-07T08:28:56;3.67;;;2.53;;
25549;SDS011;13444;50.562;7.262;2023-05-07T08:31:22;4.97;;;3.10;;
25549;SDS011;13444;50.562;7.262;2023-05-07T08:33:47;4.32;;;2.63;;
25549;SDS011;13444;50.562;7.262;2023-05-07T08:36:13;3.97;;;2.60;;
25549;SDS011;13444;50.562;7.262;2023-05-07T08:38:39;3.28;;;2.00;;
25549;SDS011;13444;50.562;7.262;2023-05-07T08:41:09;3.58;;;2.50;;
25549;SDS011;13444;50.562;7.262;2023-05-07T08:43:35;4.30;;;2.40;;
25549;SDS011;13444;50.562;7.262;2023-05-07T08:46:02;6.63;;;2.45;;
25549;SDS011;13444;50.562;7.262;2023-05-07T08:48:29;4.25;;;2.08;;
25549;SDS011;13444;50.562;7.262;2023-05-07T08:50:57;5.50;;;2.33;;
25549;SDS011;13444;50.562;7.262;2023-05-07T08:53:24;3.45;;;2.45;;
25549;SDS011;13444;50.562;7.262;2023-05-07T08:55:49;4.25;;;2.22;;
25549;SDS011;13444;50.562;7.262;2023-05-07T08:58:16;2.80;;;2.20;;
25549;SDS011;13444;50.562;7.262;2023-05-07T09:00:41;5.05;;;2.15;;
25549;SDS011;13444;50.562;7.262;2023-05-07T09:03:07;4.53;;;2.10;;
25549;SDS011;13444;50.562;7.262;2023-05-07T09:05:33;5.78;;;2.22;;
25549;SDS011;13444;50.562;7.262;2023-05-07T09:07:59;3.10;;;2.00;;
25549;SDS011;13444;50.562;7.262;2023-05-07T09:10:25;5.28;;;2.22;;
25549;SDS011;13444;50.562;7.262;2023-05-07T09:12:51;4.38;;;2.47;;
25549;SDS011;13444;50.562;7.262;2023-05-07T09:15:17;6.97;;;2.17;;
25549;SDS011;13444;50.562;7.262;2023-05-07T09:17:43;3.78;;;2.05;;
25549;SDS011;13444;50.562;7.262;2023-05-07T09:20:09;3.33;;;1.90;;
25549;SDS011;13444;50.562;7.262;2023-05-07T09:22:38;3.47;;;1.85;;
25549;SDS011;13444;50.562;7.262;2023-05-07T09:25:05;3.35;;;1.98;;
25549;SDS011;13444;50.562;7.262;2023-05-07T09:27:31;3.80;;;1.73;;
25549;SDS011;13444;50.562;7.262;2023-05-07T09:29:57;3.58;;;1.92;;
25549;SDS011;13444;50.562;7.262;2023-05-07T09:32:22;2.80;;;1.83;;
25549;SDS011;13444;50.562;7.262;2023-05-07T09:34:49;9.88;;;2.30;;
25549;SDS011;13444;50.562;7.262;2023-05-07T09:37:15;4.85;;;1.70;;
25549;SDS011;13444;50.562;7.262;2023-05-07T09:39:47;3.40;;;2.22;;
25549;SDS011;13444;50.562;7.262;2023-05-07T09:42:14;2.40;;;1.70;;
25549;SDS011;13444;50.562;7.262;2023-05-07T09:44:40;9.00;;;1.88;;
25549;SDS011;13444;50.562;7.262;2023-05-07T09:47:06;3.05;;;1.50;;
25549;SDS011;13444;50.562;7.262;2023-05-07T09:49:36;3.13;;;1.95;;
25549;SDS011;13444;50.562;7.262;2023-05-07T09:52:02;2.55;;;1.40;;
25549;SDS011;13444;50.562;7.262;2023-05-07T09:54:31;1.75;;;1.55;;
25549;SDS011;13444;50.562;7.262;2023-05-07T09:57:03;3.25;;;1.60;;
25549;SDS011;13444;50.562;7.262;2023-05-07T09:59:29;3.25;;;1.38;;
25549;SDS011;13444;50.562;7.262;2023-05-07T10:01:57;3.25;;;1.23;;
25549;SDS011;13444;50.562;7.262;2023-05-07T10:04:27;3.28;;;1.30;;
25549;SDS011;13444;50.562;7.262;2023-05-07T10:06:53;4.55;;;1.60;;
25549;SDS011;13444;50.562;7.262;2023-05-07T10:09:20;3.38;;;1.33;;
25549;SDS011;13444;50.562;7.262;2023-05-07T10:11:46;3.95;;;1.48;;
25549;SDS011;13444;50.562;7.262;2023-05-07T10:14:14;6.28;;;1.50;;
25549;SDS011;13444;50.562;7.262;2023-05-07T10:16:39;5.82;;;1.50;;
25549;SDS011;13444;50.562;7.262;2023-05-07T10:19:07;1.60;;;1.05;;
25549;SDS011;13444;50.562;7.262;2023-05-07T10:21:37;3.30;;;1.38;;
25549;SDS011;13444;50.562;7.262;2023-05-07T10:24:04;2.97;;;1.80;;
25549;SDS011;13444;50.562;7.262;2023-05-07T10:26:38;3.88;;;2.17;;
25549;SDS011;13444;50.562;7.262;2023-05-07T10:29:10;3.15;;;1.30;;
25549;SDS011;13444;50.562;7.262;2023-05-07T10:34:22;2.92;;;1.30;;
25549;SDS011;13444;50.562;7.262;2023-05-07T10:36:52;3.58;;;1.38;;
25549;SDS011;13444;50.562;7.262;2023-05-07T10:39:20;3.40;;;1.25;;
25549;SDS011;13444;50.562;7.262;2023-05-07T10:41:47;2.33;;;0.93;;
25549;SDS011;13444;50.562;7.262;2023-05-07T10:44:26;3.60;;;1.00;;
25549;SDS011;13444;50.562;7.262;2023-05-07T10:47:06;3.42;;;1.10;;
25549;SDS011;13444;50.562;7.262;2023-05-07T10:49:34;2.47;;;0.98;;
25549;SDS011;13444;50.562;7.262;2023-05-07T10:57:40;2.90;;;1.10;;
25549;SDS011;13444;50.562;7.262;2023-05-07T11:00:40;1.70;;;0.90;;
25549;SDS011;13444;50.562;7.262;2023-05-07T11:05:29;2.60;;;1.10;;
25549;SDS011;13444;50.562;7.262;2023-05-07T11:07:56;1.52;;;0.93;;
25549;SDS011;13444;50.562;7.262;2023-05-07T11:10:23;1.77;;;1.00;;
25549;SDS011;13444;50.562;7.262;2023-05-07T11:13:15;3.40;;;1.00;;
25549;SDS011;13444;50.562;7.262;2023-05-07T11:15:42;3.05;;;1.15;;
25549;SDS011;13444;50.562;7.262;2023-05-07T11:18:12;1.10;;;1.00;;
25549;SDS011;13444;50.562;7.262;2023-05-07T11:20:46;3.78;;;1.02;;
25549;SDS011;13444;50.562;7.262;2023-05-07T11:26:03;2.50;;;0.85;;
25549;SDS011;13444;50.562;7.262;2023-05-07T11:28:30;1.98;;;1.00;;
25549;SDS011;13444;50.562;7.262;2023-05-07T11:31:00;1.63;;;0.80;;
25549;SDS011;13444;50.562;7.262;2023-05-07T11:33:27;3.80;;;1.00;;
25549;SDS011;13444;50.562;7.262;2023-05-07T11:35:53;2.65;;;0.88;;
25549;SDS011;13444;50.562;7.262;2023-05-07T11:38:19;3.55;;;1.17;;
25549;SDS011;13444;50.562;7.262;2023-05-07T11:40:51;2.13;;;0.90;;
25549;SDS011;13444;50.562;7.262;2023-05-07T11:43:18;1.67;;;0.98;;
25549;SDS011;13444;50.562;7.262;2023-05-07T11:45:44;2.60;;;1.00;;
25549;SDS011;13444;50.562;7.262;2023-05-07T11:48:11;4.75;;;1.30;;
25549;SDS011;13444;50.562;7.262;2023-05-07T11:50:49;3.33;;;0.95;;
25549;SDS011;13444;50.562;7.262;2023-05-07T11:53:19;1.80;;;1.05;;
25549;SDS011;13444;50.562;7.262;2023-05-07T11:55:46;1.23;;;0.77;;
25549;SDS011;13444;50.562;7.262;2023-05-07T11:58:12;3.15;;;1.30;;
25549;SDS011;13444;50.562;7.262;2023-05-07T12:00:51;1.67;;;0.82;;
25549;SDS011;13444;50.562;7.262;2023-05-07T12:03:18;1.88;;;1.00;;
25549;SDS011;13444;50.562;7.262;2023-05-07T12:05:45;5.43;;;0.98;;
25549;SDS011;13444;50.562;7.262;2023-05-07T12:08:14;1.38;;;0.77;;
25549;SDS011;13444;50.562;7.262;2023-05-07T12:10:41;2.83;;;0.90;;
25549;SDS011;13444;50.562;7.262;2023-05-07T12:13:17;2.30;;;0.95;;
25549;SDS011;13444;50.562;7.262;2023-05-07T12:15:43;1.55;;;0.85;;
25549;SDS011;13444;50.562;7.262;2023-05-07T12:18:09;0.93;;;0.60;;
25549;SDS011;13444;50.562;7.262;2023-05-07T12:20:36;1.02;;;0.60;;
25549;SDS011;13444;50.562;7.262;2023-05-07T12:23:02;1.92;;;0.73;;
25549;SDS011;13444;50.562;7.262;2023-05-07T12:25:37;1.00;;;0.73;;
25549;SDS011;13444;50.562;7.262;2023-05-07T12:28:03;1.65;;;1.00;;
25549;SDS011;13444;50.562;7.262;2023-05-07T12:30:36;3.22;;;1.17;;
25549;SDS011;13444;50.562;7.262;2023-05-07T12:33:03;2.30;;;0.85;;
25549;SDS011;13444;50.562;7.262;2023-05-07T12:35:32;1.63;;;1.20;;
25549;SDS011;13444;50.562;7.262;2023-05-07T12:38:04;1.38;;;1.02;;
25549;SDS011;13444;50.562;7.262;2023-05-07T12:40:40;6.03;;;1.20;;
25549;SDS011;13444;50.562;7.262;2023-05-07T12:43:07;1.10;;;0.80;;
25549;SDS011;13444;50.562;7.262;2023-05-07T12:45:40;2.13;;;0.90;;
25549;SDS011;13444;50.562;7.262;2023-05-07T12:48:06;2.03;;;0.90;;
25549;SDS011;13444;50.562;7.262;2023-05-07T12:50:34;2.80;;;1.08;;
25549;SDS011;13444;50.562;7.262;2023-05-07T12:53:00;1.30;;;0.93;;
25549;SDS011;13444;50.562;7.262;2023-05-07T12:55:30;3.13;;;1.00;;
25549;SDS011;13444;50.562;7.262;2023-05-07T12:57:56;7.35;;;4.00;;
25549;SDS011;13444;50.562;7.262;2023-05-07T13:00:36;1.98;;;1.00;;
25549;SDS011;13444;50.562;7.262;2023-05-07T13:03:02;1.92;;;1.02;;
25549;SDS011;13444;50.562;7.262;2023-05-07T13:05:28;2.45;;;0.90;;
25549;SDS011;13444;50.562;7.262;2023-05-07T13:07:54;2.47;;;1.02;;
25549;SDS011;13444;50.562;7.262;2023-05-07T13:10:21;1.63;;;1.00;;
25549;SDS011;13444;50.562;7.262;2023-05-07T13:12:48;2.75;;;0.93;;
25549;SDS011;13444;50.562;7.262;2023-05-07T13:15:14;2.25;;;1.02;;
25549;SDS011;13444;50.562;7.262;2023-05-07T13:17:39;1.58;;;1.00;;
25549;SDS011;13444;50.562;7.262;2023-05-07T13:20:05;1.55;;;1.13;;
25549;SDS011;13444;50.562;7.262;2023-05-07T13:22:33;2.22;;;1.40;;
25549;SDS011;13444;50.562;7.262;2023-05-07T13:24:58;2.88;;;1.40;;
25549;SDS011;13444;50.562;7.262;2023-05-07T13:27:24;2.40;;;1.30;;
25549;SDS011;13444;50.562;7.262;2023-05-07T13:29:49;1.80;;;1.20;;
25549;SDS011;13444;50.562;7.262;2023-05-07T13:32:15;3.58;;;1.50;;
25549;SDS011;13444;50.562;7.262;2023-05-07T13:34:40;2.90;;;1.20;;
25549;SDS011;13444;50.562;7.262;2023-05-07T13:37:06;3.15;;;1.30;;
25549;SDS011;13444;50.562;7.262;2023-05-07T13:39:32;1.52;;;1.10;;
25549;SDS011;13444;50.562;7.262;2023-05-07T13:41:58;1.33;;;1.10;;
25549;SDS011;13444;50.562;7.262;2023-05-07T13:44:23;3.35;;;1.50;;
25549;SDS011;13444;50.562;7.262;2023-05-07T13:46:52;3.78;;;1.83;;
25549;SDS011;13444;50.562;7.262;2023-05-07T13:49:17;2.42;;;1.60;;
25549;SDS011;13444;50.562;7.262;2023-05-07T13:51:43;2.60;;;1.42;;
25549;SDS011;13444;50.562;7.262;2023-05-07T13:54:08;3.65;;;1.75;;
25549;SDS011;13444;50.562;7.262;2023-05-07T13:56:34;2.20;;;1.48;;
25549;SDS011;13444;50.562;7.262;2023-05-07T13:59:00;2.15;;;1.40;;
25549;SDS011;13444;50.562;7.262;2023-05-07T14:01:26;3.90;;;1.55;;
25549;SDS011;13444;50.562;7.262;2023-05-07T14:03:51;3.90;;;1.67;;
25549;SDS011;13444;50.562;7.262;2023-05-07T14:06:17;1.90;;;1.50;;
25549;SDS011;13444;50.562;7.262;2023-05-07T14:08:43;1.80;;;1.50;;
25549;SDS011;13444;50.562;7.262;2023-05-07T14:11:09;2.35;;;1.67;;
25549;SDS011;13444;50.562;7.262;2023-05-07T14:13:34;1.48;;;1.30;;
25549;SDS011;13444;50.562;7.262;2023-05-07T14:16:00;4.63;;;1.50;;
25549;SDS011;13444;50.562;7.262;2023-05-07T14:18:26;1.40;;;1.30;;
25549;SDS011;13444;50.562;7.262;2023-05-07T14:20:53;1.70;;;1.58;;
25549;SDS011;13444;50.562;7.262;2023-05-07T14:23:19;3.67;;;1.70;;
25549;SDS011;13444;50.562;7.262;2023-05-07T14:25:47;3.17;;;1.55;;
25549;SDS011;13444;50.562;7.262;2023-05-07T14:28:12;5.03;;;1.90;;
25549;SDS011;13444;50.562;7.262;2023-05-07T14:30:38;3.08;;;1.70;;
25549;SDS011;13444;50.562;7.262;2023-05-07T14:33:03;3.30;;;1.90;;
25549;SDS011;13444;50.562;7.262;2023-05-07T14:35:29;2.75;;;1.65;;
25549;SDS011;13444;50.562;7.262;2023-05-07T14:37:54;2.75;;;1.70;;
25549;SDS011;13444;50.562;7.262;2023-05-07T14:40:20;1.85;;;1.65;;
25549;SDS011;13444;50.562;7.262;2023-05-07T14:42:46;3.28;;;1.50;;
25549;SDS011;13444;50.562;7.262;2023-05-07T14:45:11;2.22;;;1.45;;
25549;SDS011;13444;50.562;7.262;2023-05-07T14:47:37;3.42;;;1.20;;
25549;SDS011;13444;50.562;7.262;2023-05-07T14:50:03;2.75;;;1.40;;
25549;SDS011;13444;50.562;7.262;2023-05-07T14:52:29;4.47;;;1.38;;
25549;SDS011;13444;50.562;7.262;2023-05-07T14:54:54;4.03;;;1.38;;
25549;SDS011;13444;50.562;7.262;2023-05-07T14:57:20;3.78;;;1.70;;